Terminal Aerodrome Forecast
Issued by NWS

Home | Current Version | Previous Version | Text Only | Print | Product List | Glossary On
Versions: 1 2 3 4 5 6 7 8 9 10 11 12 13 14 15 16 17 18 19 20 21 22 23 24 25 26 27 28 29 30 31
000
FTUS45 KGJT 271739
TAFEGE
TAF
KEGE 271739Z 2718/2818 25005KT P6SM SCT120
     FM272000 25008G18KT P6SM VCSH SCT080 BKN110
     FM280100 27007KT P6SM SCT090 BKN120
     FM280400 VRB03KT P6SM SCT100 BKN130=

USA.gov is the U.S. government's official web portal to all federal, state and local government web resources and services.